Time;durP1;ratioP1;P1;durP2;ratioP2;P2;SDS_P1;SDS_P2;PMS_P1;PMS_P2;Temp;Humidity;BMP_temperature;BMP_pressure;BME280_temperature;BME280_humidity;BME280_pressure;Samples;Min_cycle;Max_cycle;Signal;HPM_P1;HPM_P2
2022/01/04 00:01:28;;;;;;;;;4.50;3.00;;;;;12.90;74.21;99857.22;5040248;28;45423;-63
2022/01/04 00:03:54;;;;;;;;;3.25;2.25;;;;;12.90;74.38;99856.38;5040257;28;46249;-63
2022/01/04 00:06:19;;;;;;;;;3.00;3.00;;;;;12.86;74.51;99837.19;5040012;28;45289;-63
2022/01/04 00:08:45;;;;;;;;;5.50;4.25;;;;;12.86;74.34;99836.34;5022042;28;45392;-63
2022/01/04 00:11:31;;;;;;;;;4.00;1.75;;;;;12.82;74.34;99832.94;5040120;28;45242;-63
2022/01/04 00:13:56;;;;;;;;;4.00;2.00;;;;;12.82;74.86;99827.69;5039721;28;45457;-63
2022/01/04 00:16:21;;;;;;;;;4.75;3.50;;;;;12.79;74.26;99822.50;5040085;28;45228;-63
2022/01/04 00:18:47;;;;;;;;;3.50;2.00;;;;;12.73;74.44;99807.78;5022149;28;45455;-62
2022/01/04 00:21:12;;;;;;;;;1.50;1.50;;;;;12.75;74.50;99808.56;5040100;28;45191;-62
2022/01/04 00:23:38;;;;;;;;;1.33;1.00;;;;;12.77;74.77;99801.47;5039698;28;46345;-62
2022/01/04 00:26:04;;;;;;;;;1.50;1.50;;;;;12.79;74.60;99798.78;5039869;28;45221;-62
2022/01/04 00:28:29;;;;;;;;;3.00;3.00;;;;;12.75;74.54;99794.56;5046287;28;45563;-62
2022/01/04 00:30:55;;;;;;;;;1.75;1.75;;;;;12.74;74.68;99785.78;5046275;28;45521;-62
2022/01/04 00:33:21;;;;;;;;;2.00;0.33;;;;;12.74;74.46;99779.66;5041664;28;47056;-62
2022/01/04 00:35:47;;;;;;;;;3.50;1.25;;;;;12.70;74.91;99767.50;5041796;28;45477;-62
2022/01/04 00:38:13;;;;;;;;;1.67;1.33;;;;;12.72;74.49;99763.03;5046612;28;45246;-62
2022/01/04 00:40:38;;;;;;;;;1.00;1.00;;;;;12.71;74.90;99756.91;5039546;28;45250;-61
2022/01/04 00:43:04;;;;;;;;;1.00;1.00;;;;;12.70;74.92;99743.78;5039627;28;45729;-62
2022/01/04 00:45:32;;;;;;;;;1.00;1.00;;;;;12.70;74.43;99751.69;5039648;28;45299;-62
2022/01/04 00:50:25;;;;;;;;;1.00;1.00;;;;;12.68;74.94;99714.84;5039516;28;45530;-61
2022/01/04 00:52:51;;;;;;;;;0.00;0.00;;;;;12.69;75.14;99721.81;5039567;28;45566;-61
2022/01/04 00:55:19;;;;;;;;;0.00;0.00;;;;;12.70;74.69;99714.78;5021376;28;45358;-61
2022/01/04 00:57:44;;;;;;;;;1.00;1.00;;;;;12.70;74.89;99705.09;5021645;28;45452;-61
2022/01/04 01:00:13;;;;;;;;;0.33;0.33;;;;;12.68;75.01;99694.63;5039507;28;45171;-61
2022/01/04 01:02:38;;;;;;;;;0.00;0.00;;;;;12.64;74.24;99693.03;5021446;28;47681;-61
2022/01/04 01:05:05;;;;;;;;;0.00;0.00;;;;;12.71;74.61;99685.72;5039015;28;45279;-61
2022/01/04 01:07:30;;;;;;;;;0.00;0.00;;;;;12.70;74.54;99677.88;5041226;28;45274;-61
2022/01/04 01:12:24;;;;;;;;;0.33;0.33;;;;;12.67;74.73;99669.19;5042880;28;45991;-61
2022/01/04 01:14:49;;;;;;;;;0.33;0.33;;;;;12.67;74.77;99670.97;5042920;28;45370;-61
2022/01/04 01:17:14;;;;;;;;;0.00;0.00;;;;;12.65;75.07;99656.97;5043035;28;45322;-61
2022/01/04 01:19:40;;;;;;;;;0.00;0.00;;;;;12.65;74.77;99636.78;5042935;28;45578;-61
2022/01/04 01:22:05;;;;;;;;;1.25;1.00;;;;;12.64;75.06;99632.41;5042766;28;45960;-61
2022/01/04 01:24:30;;;;;;;;;0.25;0.25;;;;;12.61;74.94;99644.84;5042332;28;45452;-61
2022/01/04 01:26:56;;;;;;;;;0.00;0.00;;;;;12.62;74.72;99628.97;5043086;28;45307;-61
2022/01/04 01:29:21;;;;;;;;;0.00;0.00;;;;;12.64;74.63;99636.81;5042679;28;45238;-61
2022/01/04 01:31:47;;;;;;;;;1.00;1.00;;;;;12.66;74.75;99627.91;5056147;28;46180;-61
2022/01/04 01:34:12;;;;;;;;;1.00;0.00;;;;;12.66;75.05;99627.91;5062765;28;45229;-61
2022/01/04 01:36:37;;;;;;;;;0.00;0.00;;;;;12.65;75.09;99620.97;5062571;28;45306;-61
2022/01/04 01:39:03;;;;;;;;;0.00;0.00;;;;;12.60;74.85;99601.84;5034648;28;45412;-61
2022/01/04 01:41:29;;;;;;;;;0.00;0.00;;;;;12.68;75.08;99609.44;5048882;28;46101;-61
2022/01/04 01:43:55;;;;;;;;;1.75;0.50;;;;;12.68;75.13;99602.38;5042595;28;45391;-61
2022/01/04 01:46:20;;;;;;;;;0.00;0.00;;;;;12.67;74.97;99591.91;5042369;28;45484;-61
2022/01/04 01:48:46;;;;;;;;;1.00;1.00;;;;;12.71;74.99;99604.00;5042302;28;45435;-61
2022/01/04 01:51:15;;;;;;;;;0.67;0.67;;;;;12.71;75.14;99587.34;5042280;28;46308;-61
2022/01/04 01:53:41;;;;;;;;;0.00;0.00;;;;;12.74;75.58;99576.66;5042266;28;45324;-61
2022/01/04 01:56:07;;;;;;;;;1.00;1.00;;;;;12.72;75.30;99574.09;5042225;28;45538;-61
2022/01/04 01:58:32;;;;;;;;;1.00;1.00;;;;;12.71;74.98;99575.03;5024362;28;45489;-61
2022/01/04 02:00:58;;;;;;;;;1.50;1.00;;;;;12.74;75.09;99561.72;5024357;28;45286;-61
2022/01/04 02:03:23;;;;;;;;;0.00;0.00;;;;;12.77;75.17;99560.75;5042426;28;45210;-61
2022/01/04 02:05:49;;;;;;;;;1.50;1.00;;;;;12.77;74.61;99568.66;5042187;28;45704;-61
2022/01/04 02:08:16;;;;;;;;;1.25;1.25;;;;;12.78;75.17;99557.16;5048543;28;45506;-61
2022/01/04 02:10:43;;;;;;;;;0.00;0.00;;;;;12.77;75.13;99555.47;5061870;28;45341;-61
2022/01/04 02:13:08;;;;;;;;;1.00;1.00;;;;;12.79;75.16;99557.13;5044009;28;45307;-61
2022/01/04 02:15:34;;;;;;;;;1.00;1.00;;;;;12.79;75.03;99546.56;5062103;28;45254;-61
2022/01/04 02:18:00;;;;;;;;;2.33;1.00;;;;;12.80;75.51;99536.88;5061861;28;45469;-61
2022/01/04 02:20:25;;;;;;;;;0.50;0.25;;;;;12.78;74.97;99536.06;5061579;28;46987;-61
2022/01/04 02:22:52;;;;;;;;;1.00;1.00;;;;;12.77;75.34;99527.31;5062064;28;45201;-61
2022/01/04 02:25:18;;;;;;;;;1.00;1.00;;;;;12.82;74.99;99529.75;5061603;28;45458;-61
2022/01/04 02:27:43;;;;;;;;;2.00;2.00;;;;;12.84;75.42;99522.63;5062021;28;45232;-61
2022/01/04 02:30:14;;;;;;;;;1.00;1.00;;;;;12.83;75.17;99523.56;5054895;28;46167;-61
2022/01/04 02:32:41;;;;;;;;;3.00;1.25;;;;;12.86;75.03;99517.31;5061872;28;45437;-61
2022/01/04 02:35:07;;;;;;;;;1.00;1.00;;;;;12.84;75.27;99514.72;5061719;28;45347;-61
2022/01/04 02:37:33;;;;;;;;;1.00;1.00;;;;;12.78;74.79;99491.25;5054219;28;45494;-61
2022/01/04 02:39:58;;;;;;;;;1.75;1.75;;;;;12.87;75.20;99493.50;5040984;28;45499;-61
2022/01/04 02:42:24;;;;;;;;;1.75;1.75;;;;;12.84;75.29;99476.06;5041513;28;45431;-61
2022/01/04 02:44:49;;;;;;;;;3.00;3.00;;;;;12.87;75.27;99468.91;5041368;28;45762;-61
2022/01/04 02:47:16;;;;;;;;;2.00;2.00;;;;;12.87;75.31;99463.63;5023594;28;45385;-61
2022/01/04 02:49:42;;;;;;;;;2.75;1.75;;;;;12.84;75.01;99462.00;5023330;28;47739;-61
2022/01/04 02:52:08;;;;;;;;;2.75;2.00;;;;;12.84;75.25;99456.72;5041519;28;45260;-61
2022/01/04 02:54:33;;;;;;;;;5.00;3.00;;;;;12.85;75.36;99447.91;5041062;28;45454;-61
2022/01/04 02:56:59;;;;;;;;;3.50;3.25;;;;;12.88;75.14;99442.50;5041405;28;45305;-61
2022/01/04 02:59:25;;;;;;;;;2.00;1.50;;;;;12.91;75.03;99439.72;5041372;28;45400;-61
2022/01/04 03:01:50;;;;;;;;;1.50;1.50;;;;;12.91;75.32;99426.53;5023433;28;45269;-61
2022/01/04 03:04:16;;;;;;;;;1.00;1.00;;;;;12.89;75.13;99425.72;5041197;28;45341;-61
2022/01/04 03:06:41;;;;;;;;;1.25;1.00;;;;;12.88;75.15;99421.41;5041050;28;45349;-61
2022/01/04 03:09:07;;;;;;;;;1.00;1.00;;;;;12.89;75.30;99414.34;5040718;28;46084;-61
2022/01/04 03:11:33;;;;;;;;;2.00;2.00;;;;;12.88;75.38;99418.78;5041054;28;45294;-61
2022/01/04 03:13:59;;;;;;;;;1.00;1.00;;;;;12.88;75.12;99410.88;5041186;28;45393;-61
2022/01/04 03:16:25;;;;;;;;;2.75;2.50;;;;;12.71;75.35;99369.44;5040883;28;45522;-61
2022/01/04 03:19:10;;;;;;;;;2.00;2.00;;;;;12.91;75.19;99402.81;5022832;28;46312;-61
2022/01/04 03:21:37;;;;;;;;;2.25;2.25;;;;;12.92;75.33;99399.25;5049996;28;45352;-61
2022/01/04 03:24:05;;;;;;;;;1.25;1.00;;;;;12.90;75.58;99390.53;5060787;28;45475;-61
2022/01/04 03:26:31;;;;;;;;;2.25;2.25;;;;;12.94;75.48;99381.59;5060954;28;45244;-61
2022/01/04 03:28:56;;;;;;;;;3.50;3.25;;;;;12.94;75.17;99378.94;5060599;28;46196;-62
2022/01/04 03:31:22;;;;;;;;;7.00;4.50;;;;;12.98;75.27;99384.91;5054123;28;45268;-61
2022/01/04 03:33:48;;;;;;;;;4.50;4.00;;;;;12.97;75.00;99367.41;5042740;28;45333;-61
2022/01/04 03:36:14;;;;;;;;;5.25;4.25;;;;;12.98;74.95;99371.72;5026194;28;45405;-62
2022/01/04 03:38:40;;;;;;;;;6.25;5.00;;;;;13.02;75.16;99365.41;5043453;28;47039;-61
2022/01/04 03:41:08;;;;;;;;;4.00;2.00;;;;;13.03;74.93;99355.69;5040420;28;45477;-62
2022/01/04 03:43:34;;;;;;;;;3.00;2.33;;;;;12.99;74.83;99341.81;5040655;28;45378;-61
2022/01/04 03:45:59;;;;;;;;;3.75;2.75;;;;;13.07;74.83;99355.50;5040450;28;45321;-61
2022/01/04 03:48:24;;;;;;;;;1.00;1.00;;;;;13.09;74.92;99345.72;5040349;28;45485;-61
2022/01/04 03:50:50;;;;;;;;;4.00;4.00;;;;;13.11;74.90;99348.31;5040376;28;45408;-61
2022/01/04 03:53:15;;;;;;;;;3.25;3.00;;;;;13.13;75.00;99346.44;5040311;28;45309;-61
2022/01/04 03:55:40;;;;;;;;;4.50;3.75;;;;;13.14;74.93;99348.16;5040447;28;45189;-61
2022/01/04 03:58:06;;;;;;;;;8.00;6.25;;;;;13.14;75.03;99325.28;5040268;28;46285;-61
2022/01/04 04:00:31;;;;;;;;;6.50;5.00;;;;;13.15;75.06;99345.44;5040356;28;45325;-61
2022/01/04 04:02:56;;;;;;;;;5.00;5.00;;;;;13.17;74.92;99345.38;5040385;28;45345;-61
2022/01/04 04:05:22;;;;;;;;;3.75;3.50;;;;;13.16;74.61;99341.88;5018869;28;45528;-61
2022/01/04 04:07:47;;;;;;;;;3.75;3.75;;;;;13.17;74.65;99332.19;5020176;28;45138;-62
2022/01/04 04:10:12;;;;;;;;;1.50;1.50;;;;;13.14;74.44;99335.84;5018665;28;45861;-62
2022/01/04 04:12:38;;;;;;;;;1.00;1.00;;;;;13.11;74.36;99332.47;5020327;28;45393;-61
2022/01/04 04:15:07;;;;;;;;;1.33;1.33;;;;;13.11;74.12;99335.13;5020265;28;45256;-61
2022/01/04 04:17:33;;;;;;;;;1.25;1.00;;;;;13.10;74.37;99334.25;5020189;28;45311;-61
2022/01/04 04:19:58;;;;;;;;;0.33;0.33;;;;;13.05;74.04;99338.88;5020149;28;45436;-61
2022/01/04 04:22:23;;;;;;;;;1.00;0.00;;;;;13.02;74.25;99339.03;5020351;28;45333;-62
2022/01/04 04:24:49;;;;;;;;;1.00;1.00;;;;;12.98;73.92;99346.22;5019848;28;45470;-62
2022/01/04 04:27:14;;;;;;;;;5.25;5.25;;;;;12.96;73.98;99350.72;5019935;28;45296;-62
2022/01/04 04:29:40;;;;;;;;;0.00;0.00;;;;;12.90;73.87;99342.25;5019963;28;45310;-62
2022/01/04 04:32:06;;;;;;;;;0.00;0.00;;;;;12.90;73.87;99350.16;5036204;28;45233;-61
2022/01/04 04:34:32;;;;;;;;;0.00;0.00;;;;;12.86;73.72;99351.22;5039949;28;45614;-61
2022/01/04 04:36:57;;;;;;;;;1.00;1.00;;;;;12.83;73.53;99352.22;5030993;28;46397;-64
2022/01/04 04:39:23;;;;;;;;;0.00;0.00;;;;;12.73;73.14;99340.34;5019625;28;45267;-62
2022/01/04 04:41:49;;;;;;;;;3.50;1.50;;;;;12.76;73.51;99358.69;5020814;28;45402;-62
2022/01/04 04:44:15;;;;;;;;;1.25;1.25;;;;;12.73;73.34;99353.53;5023548;28;45455;-62
2022/01/04 04:46:40;;;;;;;;;1.00;1.00;;;;;12.68;73.01;99351.13;5023177;28;45345;-62
2022/01/04 04:49:06;;;;;;;;;0.00;0.00;;;;;12.62;73.36;99365.41;5023610;28;45246;-61
2022/01/04 04:51:32;;;;;;;;;0.00;0.00;;;;;12.60;73.22;99393.66;5023321;28;45320;-62
2022/01/04 04:53:58;;;;;;;;;0.00;0.00;;;;;12.56;73.08;99399.94;5023080;28;45305;-61
2022/01/04 04:56:23;;;;;;;;;0.00;0.00;;;;;12.48;72.72;99379.22;5023095;28;46348;-61
2022/01/04 04:58:49;;;;;;;;;0.00;0.00;;;;;12.42;72.69;99363.66;5022347;28;45288;-62
2022/01/04 05:01:14;;;;;;;;;0.00;0.00;;;;;12.33;72.94;99356.19;5047995;28;45322;-62
2022/01/04 05:03:39;;;;;;;;;0.00;0.00;;;;;12.31;72.98;99358.88;5023278;28;45412;-61
2022/01/04 05:06:05;;;;;;;;;0.00;0.00;;;;;12.24;72.97;99380.25;5032214;28;45400;-62
2022/01/04 05:08:30;;;;;;;;;0.00;0.00;;;;;12.20;72.56;99390.09;5043022;28;45261;-62
2022/01/04 05:10:57;;;;;;;;;0.50;0.50;;;;;12.18;72.74;99391.94;5042971;28;45640;-62
2022/01/04 05:13:23;;;;;;;;;0.00;0.00;;;;;12.15;72.70;99399.94;5043093;28;45237;-62
2022/01/04 05:15:48;;;;;;;;;0.00;0.00;;;;;12.11;72.62;99396.59;5024949;28;46002;-62
2022/01/04 05:18:14;;;;;;;;;0.00;0.00;;;;;12.09;72.30;99405.47;5043061;28;45239;-62
2022/01/04 05:20:39;;;;;;;;;0.00;0.00;;;;;12.03;72.66;99410.06;5042883;28;45281;-62
2022/01/04 05:23:04;;;;;;;;;0.50;0.50;;;;;12.01;72.22;99413.69;5042667;28;45602;-62
2022/01/04 05:25:30;;;;;;;;;1.00;1.00;;;;;11.98;72.11;99408.56;5042438;28;45307;-62
2022/01/04 05:27:55;;;;;;;;;0.00;0.00;;;;;11.93;72.07;99408.69;5042776;28;45455;-62
2022/01/04 05:30:21;;;;;;;;;0.00;0.00;;;;;11.90;72.18;99403.56;5044427;28;45459;-62
2022/01/04 05:32:46;;;;;;;;;0.00;0.00;;;;;11.88;72.33;99415.94;5062934;28;45304;-62
2022/01/04 05:35:11;;;;;;;;;0.00;0.00;;;;;11.85;72.05;99409.03;5044547;28;45984;-62
2022/01/04 05:37:36;;;;;;;;;0.00;0.00;;;;;11.85;72.07;99410.81;5036406;28;45309;-62
2022/01/04 05:40:03;;;;;;;;;0.00;0.00;;;;;11.75;72.01;99393.66;5042272;28;45364;-62
2022/01/04 05:42:28;;;;;;;;;0.50;0.50;;;;;11.80;72.16;99411.00;5042557;28;45344;-62
2022/01/04 05:44:54;;;;;;;;;0.00;0.00;;;;;11.77;72.26;99411.09;5042131;28;45540;-62
2022/01/04 05:47:19;;;;;;;;;0.50;0.50;;;;;11.75;72.13;99407.69;5042621;28;45292;-62
2022/01/04 05:49:44;;;;;;;;;1.33;0.00;;;;;11.73;72.03;99408.66;5042395;28;45242;-63
2022/01/04 05:52:10;;;;;;;;;0.00;0.00;;;;;11.71;71.97;99414.84;5042443;28;45258;-62
2022/01/04 05:54:35;;;;;;;;;0.00;0.00;;;;;11.67;71.91;99422.91;5040666;28;45487;-63
2022/01/04 05:57:00;;;;;;;;;0.00;0.00;;;;;11.68;71.92;99422.00;5024422;28;45233;-62
2022/01/04 05:59:26;;;;;;;;;0.00;0.00;;;;;11.65;72.01;99432.66;5042235;28;45296;-62
2022/01/04 06:01:51;;;;;;;;;1.00;0.00;;;;;11.62;71.90;99422.25;5024173;28;45575;-62
2022/01/04 06:04:17;;;;;;;;;3.50;2.00;;;;;11.62;71.93;99427.50;5041898;28;45343;-62
2022/01/04 06:06:42;;;;;;;;;0.00;0.00;;;;;11.59;72.01;99425.84;5041937;28;45364;-62
2022/01/04 06:09:17;;;;;;;;;0.00;0.00;;;;;11.58;71.77;99421.50;5041863;28;45250;-62
2022/01/04 06:16:54;;;;;;;;;1.50;1.50;;;;;11.54;71.73;99427.81;5042086;28;45230;-62
2022/01/04 06:19:19;;;;;;;;;0.00;0.00;;;;;11.51;71.58;99420.06;5041884;28;45408;-62
2022/01/04 06:21:45;;;;;;;;;0.00;0.00;;;;;11.52;71.87;99422.63;5042030;28;45364;-62
2022/01/04 06:24:10;;;;;;;;;1.00;1.00;;;;;11.50;71.79;99413.06;5023518;28;48030;-62
2022/01/04 06:26:36;;;;;;;;;0.00;0.00;;;;;11.51;71.67;99422.69;5041815;28;45289;-62
2022/01/04 06:29:02;;;;;;;;;0.00;0.00;;;;;11.48;71.57;99428.91;5041901;28;45399;-63
2022/01/04 06:31:28;;;;;;;;;1.25;1.25;;;;;11.49;71.65;99421.88;5052553;28;45485;-63
2022/01/04 06:33:54;;;;;;;;;1.00;1.00;;;;;11.46;71.55;99421.97;5061686;28;47044;-62
2022/01/04 06:36:20;;;;;;;;;2.00;2.00;;;;;11.49;71.64;99437.66;5061719;28;45252;-62
2022/01/04 06:38:46;;;;;;;;;1.50;1.25;;;;;11.46;71.57;99427.22;5043205;28;45348;-62
2022/01/04 06:41:11;;;;;;;;;0.00;0.00;;;;;11.46;71.58;99449.16;5023693;28;45261;-62
2022/01/04 06:43:36;;;;;;;;;2.00;2.00;;;;;11.46;71.80;99454.41;5041311;28;45226;-62
2022/01/04 06:46:02;;;;;;;;;2.75;2.00;;;;;11.45;71.57;99450.06;5041402;28;45222;-62
2022/01/04 06:48:27;;;;;;;;;1.00;1.00;;;;;11.46;71.62;99449.16;5041440;28;46008;-62
2022/01/04 06:50:52;;;;;;;;;1.00;1.00;;;;;11.45;71.40;99452.69;5041405;28;45560;-62
2022/01/04 06:53:18;;;;;;;;;2.25;1.25;;;;;11.44;71.43;99468.53;5040948;28;45437;-62
2022/01/04 06:55:43;;;;;;;;;2.00;1.00;;;;;11.42;71.41;99467.75;5041234;28;45249;-62
2022/01/04 06:58:09;;;;;;;;;1.25;1.25;;;;;11.42;71.44;99462.47;5041249;28;45312;-62
2022/01/04 07:00:34;;;;;;;;;2.00;2.00;;;;;11.41;71.55;99473.91;5041238;28;45467;-63
2022/01/04 07:02:59;;;;;;;;;1.50;1.50;;;;;11.40;71.43;99480.94;5023092;28;47335;-64
2022/01/04 07:05:27;;;;;;;;;3.00;3.00;;;;;11.41;71.27;99487.94;5040385;28;45321;-64
2022/01/04 07:07:53;;;;;;;;;4.00;3.00;;;;;11.38;71.36;99488.91;5040975;28;45313;-65
2022/01/04 07:10:18;;;;;;;;;4.25;4.00;;;;;11.35;71.55;99493.41;5022993;28;45321;-61
2022/01/04 07:12:43;;;;;;;;;2.75;2.50;;;;;11.38;71.21;99499.44;5023108;28;45518;-63
2022/01/04 07:15:09;;;;;;;;;4.25;3.00;;;;;11.35;71.36;99496.91;5041053;28;45312;-64
2022/01/04 07:17:38;;;;;;;;;4.25;3.00;;;;;11.33;71.37;99497.88;5040941;28;45253;-66
2022/01/04 07:20:04;;;;;;;;;3.00;3.00;;;;;11.34;71.16;99496.97;5040944;28;45384;-64
2022/01/04 07:22:29;;;;;;;;;2.00;2.00;;;;;11.33;71.14;99493.47;5040663;28;46325;-64
2022/01/04 07:24:54;;;;;;;;;4.50;4.00;;;;;11.33;71.29;99496.13;5040572;28;45295;-65
2022/01/04 07:27:20;;;;;;;;;4.50;4.25;;;;;11.32;71.22;99502.28;5023180;28;45367;-66
2022/01/04 07:29:45;;;;;;;;;6.50;6.50;;;;;11.29;71.33;99494.50;5040883;28;45431;-65
2022/01/04 07:32:10;;;;;;;;;7.00;5.50;;;;;11.30;71.23;99500.63;5057588;28;45411;-65
2022/01/04 07:34:36;;;;;;;;;6.50;5.50;;;;;11.30;71.14;99512.00;5042835;28;45301;-64
2022/01/04 07:37:02;;;;;;;;;7.25;7.00;;;;;11.30;71.32;99516.41;5056755;28;45244;-65
2022/01/04 07:39:27;;;;;;;;;6.50;6.50;;;;;11.29;71.15;99518.16;5040224;28;45427;-65
2022/01/04 07:41:54;;;;;;;;;6.50;6.00;;;;;11.29;71.22;99523.41;5040337;28;45365;-66
2022/01/04 07:44:19;;;;;;;;;7.50;7.50;;;;;11.31;71.39;99523.38;5040749;28;45307;-64
2022/01/04 07:46:44;;;;;;;;;4.00;4.00;;;;;11.29;71.06;99528.69;5040399;28;45321;-64
2022/01/04 07:49:10;;;;;;;;;5.00;4.75;;;;;11.25;70.98;99524.47;5040739;28;45230;-62
2022/01/04 07:51:35;;;;;;;;;2.25;2.25;;;;;11.26;71.09;99539.31;5040219;28;46100;-61
2022/01/04 07:54:01;;;;;;;;;4.00;4.00;;;;;11.25;71.10;99548.13;5040352;28;45300;-61
2022/01/04 07:56:26;;;;;;;;;2.00;2.00;;;;;11.23;70.94;99547.31;5040487;28;45289;-62
2022/01/04 07:58:52;;;;;;;;;2.25;2.25;;;;;11.22;70.90;99551.72;5022541;28;45372;-61
2022/01/04 08:01:17;;;;;;;;;2.50;1.75;;;;;11.19;70.94;99546.59;5040209;28;45222;-61
2022/01/04 08:03:42;;;;;;;;;4.00;4.00;;;;;11.20;70.87;99563.22;5040608;28;45241;-62
2022/01/04 08:06:08;;;;;;;;;2.75;2.75;;;;;11.19;70.87;99577.25;5039993;28;45243;-62
2022/01/04 08:08:33;;;;;;;;;3.00;2.00;;;;;11.19;71.02;99590.41;5040057;28;45240;-62
2022/01/04 08:10:58;;;;;;;;;2.00;2.00;;;;;11.15;70.80;99580.94;5039874;28;46243;-61
2022/01/04 08:13:29;;;;;;;;;3.00;3.00;;;;;11.15;70.87;99592.28;5040282;28;45217;-61
2022/01/04 08:15:55;;;;;;;;;3.75;2.50;;;;;11.15;70.71;99601.97;5039505;28;45261;-62
2022/01/04 08:18:20;;;;;;;;;4.50;4.50;;;;;11.15;70.95;99615.94;5039698;28;45439;-62
2022/01/04 08:20:45;;;;;;;;;4.50;4.00;;;;;11.13;70.80;99609.03;5039755;28;45333;-62
2022/01/04 08:23:10;;;;;;;;;2.25;2.25;;;;;11.13;70.80;99615.16;5039698;28;45278;-62
2022/01/04 08:25:37;;;;;;;;;3.25;3.25;;;;;11.14;70.79;99618.63;5039885;28;45202;-61
2022/01/04 08:28:04;;;;;;;;;4.75;4.50;;;;;11.15;70.74;99617.72;5040035;28;45232;-61
2022/01/04 08:30:29;;;;;;;;;6.25;6.25;;;;;11.14;70.81;99622.13;5042444;28;46310;-61
2022/01/04 08:32:55;;;;;;;;;6.50;6.50;;;;;11.12;70.68;99613.44;5041996;28;45520;-62
2022/01/04 08:35:22;;;;;;;;;6.25;6.25;;;;;11.11;70.62;99603.84;5059959;28;45356;-61
2022/01/04 08:37:47;;;;;;;;;5.75;4.75;;;;;11.13;70.86;99614.28;5049938;28;45333;-62
2022/01/04 08:40:13;;;;;;;;;7.75;6.75;;;;;11.14;70.77;99626.53;5039294;28;45904;-62
2022/01/04 08:42:38;;;;;;;;;6.50;6.50;;;;;11.14;70.76;99630.00;5039706;28;45269;-62
2022/01/04 08:45:07;;;;;;;;;8.00;6.00;;;;;11.13;70.64;99635.31;5039635;28;45308;-61
2022/01/04 08:47:32;;;;;;;;;8.25;6.25;;;;;11.14;70.57;99637.91;5031130;28;45310;-61
2022/01/04 08:49:58;;;;;;;;;6.00;6.00;;;;;11.07;70.79;99620.63;5043146;28;46033;-61
2022/01/04 08:52:25;;;;;;;;;7.75;6.25;;;;;11.15;70.71;99646.66;5021917;28;45238;-61
2022/01/04 08:54:50;;;;;;;;;6.25;5.00;;;;;11.14;70.64;99653.66;5039334;28;45359;-61
2022/01/04 08:57:16;;;;;;;;;5.00;5.00;;;;;11.14;70.66;99655.44;5021876;28;45968;-61
2022/01/04 08:59:41;;;;;;;;;5.50;5.50;;;;;11.13;70.70;99644.09;5021313;28;47120;-61
2022/01/04 09:02:07;;;;;;;;;5.75;4.25;;;;;11.15;70.65;99641.41;5039509;28;45344;-61
2022/01/04 09:04:32;;;;;;;;;5.00;4.00;;;;;11.15;71.01;99641.41;5039534;28;45325;-61
2022/01/04 09:06:57;;;;;;;;;4.75;4.75;;;;;11.15;70.67;99650.13;5039082;28;45559;-61
2022/01/04 09:09:23;;;;;;;;;3.50;3.50;;;;;11.15;70.67;99655.41;5039000;28;45604;-61
2022/01/04 09:11:48;;;;;;;;;5.00;4.25;;;;;11.13;70.76;99657.25;5021411;28;45401;-62
2022/01/04 09:19:32;;;;;;;;;4.00;3.00;;;;;11.13;70.66;99688.78;5038968;28;45788;-64
2022/01/04 09:21:58;;;;;;;;;4.00;3.75;;;;;11.12;70.57;99687.06;5039175;28;45291;-61
2022/01/04 09:24:23;;;;;;;;;2.00;2.00;;;;;11.11;70.43;99674.81;5021032;28;45389;-61
2022/01/04 09:26:48;;;;;;;;;3.00;3.00;;;;;11.06;70.68;99659.19;5021072;28;45631;-61
2022/01/04 09:29:21;;;;;;;;;2.00;2.00;;;;;11.08;70.57;99664.44;5023942;28;46756;-61
2022/01/04 09:31:49;;;;;;;;;2.00;2.00;;;;;11.04;70.66;99671.53;5056063;28;45320;-61
2022/01/04 09:34:16;;;;;;;;;3.75;3.25;;;;;11.02;70.67;99657.59;5062885;28;45299;-61
2022/01/04 09:36:41;;;;;;;;;1.50;1.50;;;;;11.01;70.38;99679.53;5044120;28;45198;-61
2022/01/04 09:39:15;;;;;;;;;4.25;3.25;;;;;10.98;70.60;99671.75;5042214;28;45357;-61
2022/01/04 09:41:42;;;;;;;;;2.00;2.00;;;;;10.99;70.70;99683.09;5042412;28;45404;-61
2022/01/04 09:44:08;;;;;;;;;3.50;3.00;;;;;10.95;70.67;99674.47;5042499;28;45253;-61
2022/01/04 09:46:34;;;;;;;;;5.00;4.00;;;;;10.92;70.60;99669.31;5042176;28;45246;-61
2022/01/04 09:48:59;;;;;;;;;3.25;3.00;;;;;10.92;70.61;99679.84;5042290;28;46248;-61
2022/01/04 09:51:27;;;;;;;;;4.75;3.50;;;;;10.93;70.66;99672.78;5042300;28;45213;-61
2022/01/04 09:53:53;;;;;;;;;3.50;3.00;;;;;10.91;70.53;99679.88;5042176;28;45376;-61
2022/01/04 09:56:18;;;;;;;;;2.00;2.00;;;;;10.88;70.45;99668.56;5042206;28;45269;-61
2022/01/04 09:58:44;;;;;;;;;3.75;2.75;;;;;10.86;70.57;99664.25;5042163;28;45372;-61
2022/01/04 10:01:35;;;;;;;;;7.00;3.25;;;;;10.85;70.58;99679.16;5042155;28;45348;-61
2022/01/04 10:04:01;;;;;;;;;4.00;4.00;;;;;10.86;70.42;99695.78;5033668;28;45447;-61
2022/01/04 10:06:26;;;;;;;;;4.25;3.75;;;;;10.85;70.48;99702.81;5041672;28;45249;-61
2022/01/04 10:09:11;;;;;;;;;2.25;2.25;;;;;10.84;70.44;99697.59;5041501;28;46009;-61
2022/01/04 10:11:44;;;;;;;;;4.00;3.75;;;;;10.80;70.36;99694.22;5041921;28;45458;-61
2022/01/04 10:14:27;;;;;;;;;4.75;4.50;;;;;10.80;70.44;99719.66;5023873;28;45240;-61
2022/01/04 10:16:55;;;;;;;;;5.00;5.00;;;;;10.78;70.54;99717.06;5041852;28;45237;-61
2022/01/04 10:19:32;;;;;;;;;5.25;5.25;;;;;10.77;70.43;99727.59;5041611;28;45383;-61
2022/01/04 10:22:23;;;;;;;;;5.00;3.75;;;;;10.76;70.61;99731.16;5041721;28;45379;-61
2022/01/04 10:25:00;;;;;;;;;7.00;7.00;;;;;10.75;70.61;99732.06;5050611;28;45344;-61
2022/01/04 10:27:36;;;;;;;;;5.75;5.00;;;;;10.73;70.64;99732.97;5061683;28;45393;-61
2022/01/04 10:30:13;;;;;;;;;6.50;5.25;;;;;10.72;70.56;99738.28;5040144;28;47197;-61
2022/01/04 10:32:48;;;;;;;;;7.00;6.75;;;;;10.71;70.67;99733.94;5049022;28;45371;-61
2022/01/04 10:35:29;;;;;;;;;5.75;5.75;;;;;10.68;70.63;99726.16;5043691;28;45325;-61
2022/01/04 10:37:57;;;;;;;;;6.00;5.25;;;;;10.67;70.67;99722.66;5050515;28;45235;-61
2022/01/04 10:40:25;;;;;;;;;6.50;6.00;;;;;10.67;70.70;99721.81;5040299;28;47173;-61
2022/01/04 10:42:50;;;;;;;;;4.00;4.00;;;;;10.65;70.74;99715.72;5041422;28;45261;-61
2022/01/04 10:45:35;;;;;;;;;8.00;6.00;;;;;10.61;70.93;99701.81;5041298;28;45285;-61
2022/01/04 10:48:13;;;;;;;;;8.00;6.75;;;;;10.59;70.91;99711.53;5041469;28;45397;-61
2022/01/04 10:50:40;;;;;;;;;8.25;8.00;;;;;10.65;70.57;99708.69;5041140;28;46210;-61
2022/01/04 10:53:14;;;;;;;;;7.50;7.50;;;;;10.63;70.81;99701.75;5040734;28;45458;-61
2022/01/04 10:55:39;;;;;;;;;5.50;5.00;;;;;10.64;70.90;99695.59;5041378;28;45285;-61
2022/01/04 10:58:05;;;;;;;;;4.50;3.25;;;;;10.63;71.10;99670.22;5041132;28;45379;-61
2022/01/04 11:00:31;;;;;;;;;5.00;5.00;;;;;10.67;71.03;99670.09;5041374;28;46127;-61
2022/01/04 11:03:02;;;;;;;;;6.00;6.00;;;;;10.70;70.82;99695.41;5041039;28;45335;-61
2022/01/04 11:05:28;;;;;;;;;6.25;6.25;;;;;10.76;70.94;99710.16;5024262;28;45335;-61
2022/01/04 11:08:02;;;;;;;;;7.25;5.25;;;;;10.76;70.73;99704.88;5022845;28;45614;-61
2022/01/04 11:10:31;;;;;;;;;4.25;4.25;;;;;10.77;70.90;99702.19;5040911;28;47406;-61
2022/01/04 11:12:58;;;;;;;;;6.00;6.00;;;;;10.80;70.86;99688.09;5040817;28;45328;-61
2022/01/04 11:15:24;;;;;;;;;4.50;3.75;;;;;10.78;70.75;99692.53;5041107;28;45324;-60
2022/01/04 11:17:49;;;;;;;;;8.00;7.75;;;;;10.80;70.94;99681.06;5040827;28;45348;-60
2022/01/04 11:20:15;;;;;;;;;8.75;7.00;;;;;10.81;71.03;99701.19;5022958;28;47118;-61
2022/01/04 11:22:45;;;;;;;;;11.00;8.75;;;;;10.82;71.09;99700.28;5040389;28;45285;-61
2022/01/04 11:25:11;;;;;;;;;7.50;7.50;;;;;10.83;71.17;99696.75;5040842;28;45544;-61
2022/01/04 11:27:38;;;;;;;;;9.00;9.00;;;;;10.84;71.08;99694.97;5040519;28;45570;-59
2022/01/04 11:30:13;;;;;;;;;9.00;8.00;;;;;10.84;71.15;99709.00;5040483;28;45436;-59
2022/01/04 11:32:43;;;;;;;;;9.25;8.75;;;;;10.86;71.24;99711.56;5060876;28;45420;-59
2022/01/04 11:35:13;;;;;;;;;10.25;9.75;;;;;10.85;71.18;99708.06;5060802;28;45246;-59
2022/01/04 11:37:42;;;;;;;;;9.50;9.25;;;;;10.86;71.26;99708.94;5052203;28;45324;-61
2022/01/04 11:40:22;;;;;;;;;7.25;7.25;;;;;10.83;71.38;99707.28;5040063;28;46155;-61
2022/01/04 11:42:47;;;;;;;;;8.00;5.75;;;;;10.87;71.01;99702.78;5040533;28;45398;-61
2022/01/04 11:45:13;;;;;;;;;7.75;6.50;;;;;10.88;71.29;99702.72;5040469;28;45292;-60
2022/01/04 11:47:46;;;;;;;;;11.00;8.75;;;;;10.92;71.26;99706.13;5040565;28;45510;-61